Time;durP1;ratioP1;P1;durP2;ratioP2;P2;SDS_P1;SDS_P2;PMS_P1;PMS_P2;Temp;Humidity;BMP_temperature;BMP_pressure;BME280_temperature;BME280_humidity;BME280_pressure;Samples;Min_cycle;Max_cycle;Signal;HPM_P1;HPM_P2
2022/05/21 00:01:40;;;;;;;;;6.00;5.00;;;;;18.69;72.55;100966.28;5038782;28;45293;-73
2022/05/21 00:04:06;;;;;;;;;5.33;5.33;;;;;18.79;72.32;100980.47;5037282;28;46322;-73
2022/05/21 00:06:32;;;;;;;;;7.00;6.33;;;;;18.80;73.18;100978.69;5039064;28;45495;-73
2022/05/21 00:08:57;;;;;;;;;8.67;7.00;;;;;18.64;72.96;100951.25;5038745;28;45493;-73
2022/05/21 00:11:23;;;;;;;;;8.67;6.67;;;;;18.66;73.04;100953.06;5039060;28;45217;-74
2022/05/21 00:13:48;;;;;;;;;6.67;6.00;;;;;18.69;73.38;100942.47;5038489;28;45433;-74
2022/05/21 00:16:15;;;;;;;;;9.00;6.00;;;;;18.75;73.35;100957.47;5038356;28;45280;-74
2022/05/21 00:18:41;;;;;;;;;6.67;6.00;;;;;18.76;73.33;100953.97;5038638;28;45561;-74
2022/05/21 00:21:07;;;;;;;;;6.00;5.00;;;;;18.76;73.35;100953.06;5038508;28;45481;-74
2022/05/21 00:23:34;;;;;;;;;6.33;6.33;;;;;18.74;73.31;100945.13;5038617;28;45883;-73
2022/05/21 00:26:14;;;;;;;;;7.00;7.00;;;;;18.68;73.39;100934.50;5038331;28;45315;-74
2022/05/21 00:28:41;;;;;;;;;6.00;5.67;;;;;18.71;73.64;100939.81;5038340;28;45409;-74
2022/05/21 00:31:09;;;;;;;;;6.33;5.00;;;;;18.75;73.61;100946.88;5038396;28;45573;-74
2022/05/21 00:33:35;;;;;;;;;5.33;5.33;;;;;18.60;73.74;100918.63;5038428;28;45490;-74
2022/05/21 00:36:02;;;;;;;;;7.00;7.00;;;;;18.73;73.53;100940.72;5038251;28;45385;-74
2022/05/21 00:38:28;;;;;;;;;7.00;6.00;;;;;18.71;73.49;100939.81;5038344;28;45225;-73
2022/05/21 00:40:54;;;;;;;;;7.33;6.67;;;;;18.71;74.12;100944.25;5038270;28;45484;-74
2022/05/21 00:43:39;;;;;;;;;7.00;6.00;;;;;18.69;74.26;100933.66;5038023;28;45398;-73
2022/05/21 00:46:08;;;;;;;;;8.00;6.33;;;;;18.66;74.07;100923.03;5038381;28;45430;-74
2022/05/21 00:48:38;;;;;;;;;7.33;6.67;;;;;18.71;74.34;100928.38;5038416;28;45261;-74
2022/05/21 00:51:06;;;;;;;;;8.67;7.00;;;;;18.62;73.51;100915.97;5038579;28;45304;-74
2022/05/21 00:53:32;;;;;;;;;6.33;6.33;;;;;18.64;74.23;100914.22;5037815;28;46223;-74
2022/05/21 00:55:58;;;;;;;;;6.00;6.00;;;;;18.67;74.27;100919.53;5037989;28;45992;-74
2022/05/21 01:01:15;;;;;;;;;6.67;6.00;;;;;18.52;74.53;100903.59;5037868;28;45231;-74
2022/05/21 01:03:43;;;;;;;;;7.00;6.67;;;;;18.60;74.63;100921.28;5036338;28;47117;-74
2022/05/21 01:06:08;;;;;;;;;11.00;8.67;;;;;18.58;74.61;100914.19;5038138;28;45278;-74
2022/05/21 01:08:34;;;;;;;;;7.33;7.00;;;;;18.60;74.66;100907.16;5037885;28;45569;-74
2022/05/21 01:11:04;;;;;;;;;7.00;6.00;;;;;18.60;74.23;100916.00;5037908;28;45463;-74
2022/05/21 01:13:34;;;;;;;;;7.00;6.67;;;;;18.57;74.13;100893.94;5037810;28;45547;-74
2022/05/21 01:16:01;;;;;;;;;8.67;7.00;;;;;18.57;74.31;100894.81;5037666;28;45272;-74
2022/05/21 01:18:27;;;;;;;;;7.67;7.00;;;;;18.56;73.96;100886.84;5037665;28;45438;-74
2022/05/21 01:20:58;;;;;;;;;9.00;7.67;;;;;18.56;74.31;100901.00;5037378;28;45315;-74
2022/05/21 01:23:25;;;;;;;;;7.67;7.00;;;;;18.58;74.32;100886.00;5037371;28;45342;-74
2022/05/21 01:25:52;;;;;;;;;7.00;6.33;;;;;18.56;74.31;100890.41;5037423;28;45375;-74
2022/05/21 01:28:21;;;;;;;;;7.33;7.33;;;;;18.58;74.43;100888.66;5036873;28;45504;-74
2022/05/21 01:30:50;;;;;;;;;9.33;7.00;;;;;18.61;74.40;100890.41;5037595;28;45509;-74
2022/05/21 01:33:18;;;;;;;;;9.00;7.00;;;;;18.62;74.34;100890.41;5037168;28;46050;-74
2022/05/21 01:35:45;;;;;;;;;6.33;5.33;;;;;18.58;74.17;100874.50;5037338;28;45315;-74
2022/05/21 01:38:14;;;;;;;;;9.00;8.33;;;;;18.60;74.24;100878.03;5037698;28;45422;-74
2022/05/21 01:40:40;;;;;;;;;9.33;7.33;;;;;18.56;74.31;100869.25;5037690;28;45209;-74
2022/05/21 01:45:52;;;;;;;;;7.00;7.00;;;;;18.58;74.40;100861.28;5037024;28;45597;-74
2022/05/21 01:48:22;;;;;;;;;7.00;6.33;;;;;18.51;74.11;100847.16;5037063;28;45516;-73
2022/05/21 01:50:49;;;;;;;;;8.00;7.00;;;;;18.56;74.51;100849.81;5035836;28;45413;-74
2022/05/21 01:53:15;;;;;;;;;8.67;6.33;;;;;18.54;74.34;100847.16;5036864;28;46164;-74
2022/05/21 01:55:42;;;;;;;;;8.33;6.67;;;;;18.39;74.30;100818.91;5037350;28;45316;-74
2022/05/21 01:58:08;;;;;;;;;8.33;6.67;;;;;18.55;74.25;100846.28;5036107;28;45274;-74
2022/05/21 02:00:35;;;;;;;;;8.33;7.00;;;;;18.55;74.36;100842.78;5037107;28;45303;-74
2022/05/21 02:03:00;;;;;;;;;9.67;6.00;;;;;18.55;74.34;100843.66;5036954;28;45350;-74
2022/05/21 02:05:26;;;;;;;;;13.67;8.00;;;;;18.55;74.31;100840.13;5036850;28;45613;-74
2022/05/21 02:07:51;;;;;;;;;8.67;7.67;;;;;18.39;74.17;100808.34;5037036;28;45351;-74
2022/05/21 02:10:17;;;;;;;;;10.00;8.33;;;;;18.55;74.44;100834.84;5037298;28;45327;-74
2022/05/21 02:12:43;;;;;;;;;12.00;9.00;;;;;18.52;74.54;100829.53;5036793;28;45337;-74
2022/05/21 02:15:09;;;;;;;;;9.00;8.33;;;;;18.50;74.75;100824.22;5037219;28;45703;-74
2022/05/21 02:17:35;;;;;;;;;7.00;6.00;;;;;18.48;74.68;100824.25;5037112;28;45366;-74
2022/05/21 02:20:00;;;;;;;;;9.33;8.33;;;;;18.47;74.61;100817.16;5036822;28;45240;-74
2022/05/21 02:22:27;;;;;;;;;9.00;8.33;;;;;18.47;74.79;100803.94;5035314;28;45502;-73
2022/05/21 02:24:53;;;;;;;;;13.00;11.00;;;;;18.49;74.60;100803.97;5036703;28;45482;-74
2022/05/21 02:27:19;;;;;;;;;10.33;10.33;;;;;18.46;74.28;100801.28;5036623;28;45485;-74
2022/05/21 02:29:45;;;;;;;;;14.00;11.00;;;;;18.46;74.50;100796.00;5036799;28;45387;-74
2022/05/21 02:32:12;;;;;;;;;9.00;8.67;;;;;18.23;74.78;100762.47;5035382;28;46547;-74
2022/05/21 02:34:39;;;;;;;;;11.33;10.33;;;;;18.43;75.11;100794.25;5036516;28;45538;-74
2022/05/21 02:39:49;;;;;;;;;8.67;8.33;;;;;18.45;74.97;100788.97;5036705;28;45379;-74
2022/05/21 02:44:59;;;;;;;;;7.00;6.67;;;;;18.45;74.79;100773.09;5040134;28;45442;-74
2022/05/21 02:47:25;;;;;;;;;11.67;9.33;;;;;18.33;74.92;100742.22;5040028;28;45355;-74
2022/05/21 02:49:51;;;;;;;;;18.33;15.67;;;;;18.42;74.77;100759.84;5040082;28;45331;-74
2022/05/21 02:52:17;;;;;;;;;16.00;12.00;;;;;18.46;74.84;100762.50;5039559;28;46029;-74
2022/05/21 02:54:43;;;;;;;;;11.67;9.33;;;;;18.38;74.95;100751.06;5040089;28;45504;-74
2022/05/21 02:57:09;;;;;;;;;14.00;10.33;;;;;18.46;75.10;100766.91;5039843;28;45418;-73
2022/05/21 02:59:36;;;;;;;;;11.33;9.33;;;;;18.45;75.10;100760.75;5039982;28;45445;-74
2022/05/21 03:02:03;;;;;;;;;12.67;10.67;;;;;18.46;75.04;100769.53;5039318;28;45505;-74
2022/05/21 03:04:29;;;;;;;;;15.00;9.67;;;;;18.46;74.97;100764.25;5039581;28;45544;-74
2022/05/21 03:06:56;;;;;;;;;15.00;11.00;;;;;18.41;75.01;100751.03;5039537;28;45296;-73
2022/05/21 03:12:08;;;;;;;;;11.33;10.00;;;;;18.42;75.08;100743.97;5039362;28;45362;-74
2022/05/21 03:14:33;;;;;;;;;11.33;10.00;;;;;18.42;74.90;100739.59;5039396;28;45508;-73
2022/05/21 03:17:02;;;;;;;;;14.33;11.33;;;;;18.45;75.25;100744.88;5039403;28;45449;-74
2022/05/21 03:19:33;;;;;;;;;12.33;11.33;;;;;18.46;74.95;100737.81;5039677;28;45394;-73
2022/05/21 03:21:59;;;;;;;;;16.67;13.67;;;;;18.25;75.30;100704.31;5039135;28;45284;-74
2022/05/21 03:24:26;;;;;;;;;12.00;11.00;;;;;18.30;75.37;100710.47;5039372;28;45287;-73
2022/05/21 03:26:52;;;;;;;;;14.33;11.00;;;;;18.43;75.28;100732.53;5039400;28;45293;-74
2022/05/21 03:29:17;;;;;;;;;12.67;12.00;;;;;18.43;75.09;100735.19;5039495;28;45402;-74
2022/05/21 03:31:43;;;;;;;;;12.67;11.33;;;;;18.43;75.21;100733.41;5039599;28;46111;-74
2022/05/21 03:34:09;;;;;;;;;12.00;11.00;;;;;18.43;75.05;100728.13;5039067;28;45524;-74
2022/05/21 03:36:35;;;;;;;;;14.00;11.33;;;;;18.44;74.93;100729.91;5039349;28;45400;-74
2022/05/21 03:39:01;;;;;;;;;12.67;11.33;;;;;18.45;74.80;100726.34;5039444;28;45494;-74
2022/05/21 03:41:27;;;;;;;;;13.33;11.33;;;;;18.44;74.82;100732.53;5038917;28;45395;-74
2022/05/21 03:43:54;;;;;;;;;14.33;13.00;;;;;18.44;74.98;100724.59;5039191;28;45382;-74
2022/05/21 03:46:19;;;;;;;;;15.00;13.00;;;;;18.36;74.83;100710.47;5038979;28;45513;-74
2022/05/21 03:48:45;;;;;;;;;13.00;11.00;;;;;18.38;74.97;100719.31;5039414;28;45497;-74
2022/05/21 03:51:11;;;;;;;;;17.00;13.33;;;;;18.28;74.89;100699.00;5038250;28;46034;-74
2022/05/21 03:53:38;;;;;;;;;13.33;12.67;;;;;18.40;74.86;100719.28;5038772;28;45524;-74
2022/05/21 03:56:04;;;;;;;;;14.00;13.00;;;;;18.37;74.82;100717.53;5038993;28;45481;-74
2022/05/21 03:58:30;;;;;;;;;14.33;12.00;;;;;18.32;75.13;100706.06;5039089;28;45546;-74
2022/05/21 04:00:56;;;;;;;;;13.67;12.33;;;;;18.29;75.26;100704.28;5038546;28;45431;-74
2022/05/21 04:03:21;;;;;;;;;16.33;15.00;;;;;18.35;75.36;100711.34;5038671;28;45516;-74
2022/05/21 04:05:47;;;;;;;;;13.67;11.67;;;;;18.35;74.91;100700.78;5039063;28;45219;-74
2022/05/21 04:08:16;;;;;;;;;13.67;12.67;;;;;18.34;75.27;100698.13;5039096;28;45419;-73
2022/05/21 04:10:41;;;;;;;;;13.33;12.67;;;;;18.33;75.11;100701.66;5038562;28;45494;-74
2022/05/21 04:13:07;;;;;;;;;14.00;13.67;;;;;18.34;75.14;100701.66;5038546;28;45573;-74
2022/05/21 04:15:34;;;;;;;;;15.00;13.00;;;;;18.33;75.14;100705.19;5038728;28;46204;-73
2022/05/21 04:18:00;;;;;;;;;13.25;12.00;;;;;18.31;75.27;100701.66;5038884;28;45932;-74
2022/05/21 04:20:26;;;;;;;;;16.00;12.67;;;;;18.28;75.17;100694.63;5038209;28;46182;-74
2022/05/21 04:22:52;;;;;;;;;17.00;13.67;;;;;18.33;75.39;100685.81;5038369;28;45268;-74
2022/05/21 04:25:19;;;;;;;;;13.00;12.67;;;;;18.31;75.25;100691.09;5037329;28;45510;-74
2022/05/21 04:27:45;;;;;;;;;12.33;11.00;;;;;18.28;75.07;100691.06;5037295;28;45537;-74
2022/05/21 04:30:17;;;;;;;;;11.67;11.67;;;;;18.27;75.05;100682.25;5038359;28;45367;-74
2022/05/21 04:32:46;;;;;;;;;13.67;12.33;;;;;18.25;75.08;100691.97;5038310;28;45335;-73
2022/05/21 04:35:12;;;;;;;;;13.33;12.33;;;;;18.23;75.25;100688.44;5038332;28;45316;-74
2022/05/21 04:37:38;;;;;;;;;14.00;12.00;;;;;18.22;75.61;100688.41;5038503;28;45418;-74
2022/05/21 04:40:07;;;;;;;;;13.67;11.67;;;;;18.23;75.33;100692.84;5037927;28;45346;-74
2022/05/21 04:42:33;;;;;;;;;13.00;11.00;;;;;18.26;75.30;100692.84;5038048;28;45498;-74
2022/05/21 04:44:58;;;;;;;;;11.67;11.67;;;;;18.27;75.33;100692.84;5038079;28;45393;-74
2022/05/21 04:47:24;;;;;;;;;12.00;10.67;;;;;18.17;74.96;100655.81;5038326;28;45321;-74
2022/05/21 04:49:49;;;;;;;;;13.67;12.00;;;;;18.32;74.77;100673.44;5038326;28;45414;-73
2022/05/21 04:52:15;;;;;;;;;13.00;11.00;;;;;18.24;74.88;100665.50;5036657;28;45470;-74
2022/05/21 04:54:40;;;;;;;;;14.67;13.67;;;;;18.28;75.04;100669.91;5038266;28;45473;-74
2022/05/21 04:57:06;;;;;;;;;11.67;9.33;;;;;18.28;74.76;100662.88;5038301;28;45527;-74
2022/05/21 04:59:32;;;;;;;;;12.00;11.00;;;;;18.25;74.87;100654.06;5036598;28;46565;-74
2022/05/21 05:01:58;;;;;;;;;11.00;10.67;;;;;18.24;75.10;100642.63;5037527;28;45540;-74
2022/05/21 05:04:24;;;;;;;;;10.00;9.00;;;;;18.25;74.86;100648.78;5037194;28;45583;-74
2022/05/21 05:06:50;;;;;;;;;11.67;10.67;;;;;18.26;74.71;100632.00;5038510;28;45366;-74
2022/05/21 05:09:21;;;;;;;;;13.67;10.67;;;;;18.18;74.79;100618.78;5037645;28;45556;-73
2022/05/21 05:11:47;;;;;;;;;12.00;11.67;;;;;18.28;74.78;100633.78;5037657;28;45561;-74
2022/05/21 05:14:13;;;;;;;;;11.00;11.00;;;;;18.33;74.78;100624.97;5037627;28;45363;-74
2022/05/21 05:16:39;;;;;;;;;11.00;11.00;;;;;18.27;74.94;100605.56;5037912;28;45411;-74
2022/05/21 05:19:04;;;;;;;;;12.00;10.00;;;;;18.37;74.65;100606.44;5037450;28;45446;-74
2022/05/21 05:21:30;;;;;;;;;12.33;11.00;;;;;18.27;74.13;100584.41;5037488;28;45240;-74
2022/05/21 05:23:56;;;;;;;;;9.67;9.00;;;;;18.52;74.23;100615.25;5037417;28;45541;-74
2022/05/21 05:26:22;;;;;;;;;10.67;8.33;;;;;18.61;73.72;100605.53;5037883;28;45573;-73
2022/05/21 05:28:48;;;;;;;;;8.33;7.00;;;;;18.71;73.34;100606.38;5037246;28;45410;-74
2022/05/21 05:31:14;;;;;;;;;11.00;9.00;;;;;18.79;73.24;100609.94;5037309;28;45163;-74
2022/05/21 05:33:40;;;;;;;;;13.00;11.00;;;;;18.90;72.56;100607.25;5038731;28;45258;-74
2022/05/21 05:36:06;;;;;;;;;8.67;8.00;;;;;18.92;71.89;100594.00;5037628;28;45261;-73
2022/05/21 05:38:31;;;;;;;;;8.33;8.00;;;;;18.94;71.89;100608.09;5037329;28;45463;-74
2022/05/21 05:40:57;;;;;;;;;10.33;9.33;;;;;19.06;71.55;100602.81;5037138;28;45385;-74
2022/05/21 05:43:23;;;;;;;;;11.67;10.33;;;;;19.13;71.32;100604.50;5035969;28;45557;-74
2022/05/21 05:45:51;;;;;;;;;12.00;10.00;;;;;19.11;71.17;100589.53;5036181;28;45525;-73
2022/05/21 05:48:19;;;;;;;;;13.67;12.67;;;;;19.25;70.87;100577.09;5037029;28;46096;-73
2022/05/21 05:50:45;;;;;;;;;11.00;9.67;;;;;19.43;70.64;100584.94;5037096;28;45583;-74
2022/05/21 05:53:11;;;;;;;;;14.33;11.67;;;;;19.60;69.86;100597.22;5037269;28;45371;-74
2022/05/21 05:55:37;;;;;;;;;7.00;7.00;;;;;19.73;68.62;100568.88;5037471;28;45516;-73
2022/05/21 06:00:48;;;;;;;;;6.33;6.00;;;;;20.22;67.05;100577.31;5036648;28;45438;-74
2022/05/21 06:03:13;;;;;;;;;6.00;5.33;;;;;20.41;66.19;100569.16;5036947;28;45487;-74
2022/05/21 06:05:39;;;;;;;;;4.33;4.00;;;;;20.82;65.08;100571.41;5037382;28;45292;-73
2022/05/21 06:08:05;;;;;;;;;5.33;4.00;;;;;22.21;62.32;100566.75;5036977;28;45431;-74
2022/05/21 06:10:37;;;;;;;;;5.00;4.67;;;;;23.51;58.40;100552.59;5036793;28;45489;-74
2022/05/21 06:13:04;;;;;;;;;4.00;4.00;;;;;24.20;56.13;100548.25;5037036;28;45173;-74
2022/05/21 06:15:31;;;;;;;;;4.00;4.00;;;;;25.02;53.93;100535.31;5039682;28;45326;-74
2022/05/21 06:17:57;;;;;;;;;3.00;3.00;;;;;26.01;53.85;100541.16;5040574;28;45354;-74
2022/05/21 06:20:25;;;;;;;;;4.00;4.00;;;;;26.88;48.14;100533.59;5040678;28;45181;-74
2022/05/21 06:22:50;;;;;;;;;4.67;4.67;;;;;27.64;47.11;100518.13;5040592;28;45469;-74
2022/05/21 06:25:20;;;;;;;;;5.33;5.00;;;;;28.43;45.09;100489.66;5040706;28;45415;-74
2022/05/21 06:27:48;;;;;;;;;5.00;4.00;;;;;29.27;42.26;100510.94;5038946;28;46410;-74
2022/05/21 06:30:15;;;;;;;;;5.00;4.00;;;;;29.01;41.85;100507.63;5038822;28;45261;-74
2022/05/21 06:32:41;;;;;;;;;4.33;4.00;;;;;30.14;40.89;100495.78;5040132;28;45418;-74
2022/05/21 06:35:08;;;;;;;;;4.67;4.00;;;;;31.05;39.78;100499.00;5040335;28;45475;-75
2022/05/21 06:37:33;;;;;;;;;5.00;4.67;;;;;31.60;38.77;100489.59;5039941;28;46068;-74
2022/05/21 06:39:59;;;;;;;;;6.00;5.67;;;;;31.90;37.52;100505.78;5039852;28;45442;-75
2022/05/21 06:42:24;;;;;;;;;4.67;3.67;;;;;32.61;37.10;100490.72;5040395;28;45484;-75
2022/05/21 06:44:51;;;;;;;;;4.67;4.67;;;;;32.01;36.53;100466.47;5039970;28;45510;-75
2022/05/21 06:47:17;;;;;;;;;6.00;6.00;;;;;31.54;37.78;100481.84;5039820;28;46052;-75
2022/05/21 06:49:42;;;;;;;;;5.00;5.00;;;;;32.47;36.09;100475.34;5039871;28;45947;-75
2022/05/21 06:52:08;;;;;;;;;6.00;5.00;;;;;33.43;34.22;100472.78;5039928;28;45290;-75
2022/05/21 06:54:33;;;;;;;;;4.33;4.33;;;;;34.00;32.99;100482.53;5040188;28;45360;-75
2022/05/21 06:56:59;;;;;;;;;6.00;5.67;;;;;34.77;32.08;100477.13;5038573;28;45505;-75
2022/05/21 06:59:25;;;;;;;;;6.00;5.67;;;;;35.61;30.47;100463.69;5039954;28;45415;-75
2022/05/21 07:01:50;;;;;;;;;4.67;4.67;;;;;36.41;29.97;100479.25;5039782;28;45525;-76
2022/05/21 07:04:16;;;;;;;;;5.00;4.67;;;;;37.24;28.47;100472.56;5039970;28;45434;-75
2022/05/21 07:09:27;;;;;;;;;5.00;4.00;;;;;38.23;26.93;100486.03;5039890;28;45338;-76
2022/05/21 07:11:52;;;;;;;;;10.33;10.33;;;;;38.34;26.95;100481.38;5039367;28;45473;-76
2022/05/21 07:14:19;;;;;;;;;5.67;5.67;;;;;38.42;26.99;100468.88;5039888;28;45298;-75
2022/05/21 07:16:44;;;;;;;;;4.00;4.00;;;;;39.08;26.03;100482.13;5039597;28;45429;-75
2022/05/21 07:19:10;;;;;;;;;4.67;4.67;;;;;39.66;25.21;100470.44;5039328;28;45521;-76
2022/05/21 07:21:36;;;;;;;;;5.33;5.33;;;;;40.12;24.22;100466.06;5039490;28;45280;-74
2022/05/21 07:24:02;;;;;;;;;5.33;5.33;;;;;40.62;23.74;100457.53;5039645;28;45351;-76
2022/05/21 07:26:28;;;;;;;;;4.00;3.67;;;;;40.15;24.02;100463.00;5038619;28;45566;-76
2022/05/21 07:28:53;;;;;;;;;6.67;6.33;;;;;40.75;24.21;100440.81;5039242;28;45427;-76
2022/05/21 07:31:19;;;;;;;;;4.67;4.33;;;;;41.68;22.40;100454.31;5039353;28;45409;-77
2022/05/21 07:33:45;;;;;;;;;4.33;4.33;;;;;42.14;22.75;100444.03;5041606;28;45357;-76
2022/05/21 07:36:11;;;;;;;;;5.33;5.33;;;;;42.07;22.99;100432.00;5055027;28;45362;-77
2022/05/21 07:38:37;;;;;;;;;4.67;4.67;;;;;41.38;23.02;100434.47;5054979;28;45375;-76
2022/05/21 07:41:03;;;;;;;;;4.33;4.00;;;;;41.55;23.24;100435.50;5038962;28;45303;-76
2022/05/21 07:43:30;;;;;;;;;4.67;4.67;;;;;40.83;23.40;100426.31;5038069;28;45277;-77
2022/05/21 07:46:00;;;;;;;;;4.00;4.00;;;;;39.77;24.30;100424.66;5038780;28;46030;-75
2022/05/21 07:48:27;;;;;;;;;5.00;5.00;;;;;38.68;26.44;100412.88;5038506;28;45501;-77
2022/05/21 07:50:58;;;;;;;;;4.00;4.00;;;;;38.10;27.23;100426.22;5038537;28;45453;-77
2022/05/21 07:53:31;;;;;;;;;5.00;5.00;;;;;37.84;27.08;100417.56;5040848;28;45493;-76
2022/05/21 07:55:58;;;;;;;;;5.33;5.33;;;;;37.06;28.37;100408.72;5038672;28;46175;-76
2022/05/21 07:58:26;;;;;;;;;5.00;5.00;;;;;36.36;29.47;100406.19;5038582;28;45347;-76
2022/05/21 08:00:53;;;;;;;;;6.33;5.00;;;;;35.60;30.55;100403.06;5038511;28;45498;-76
2022/05/21 08:03:19;;;;;;;;;4.67;4.67;;;;;35.05;31.43;100416.22;5038584;28;45509;-77
2022/05/21 08:05:45;;;;;;;;;3.67;3.67;;;;;34.57;32.00;100404.44;5053599;28;45562;-76
2022/05/21 08:08:11;;;;;;;;;6.67;6.00;;;;;34.06;33.33;100411.63;5038174;28;45185;-76
2022/05/21 08:10:39;;;;;;;;;3.00;3.00;;;;;33.66;33.54;100403.56;5038524;28;45521;-76
2022/05/21 08:13:06;;;;;;;;;6.00;6.00;;;;;33.36;34.05;100401.06;5038688;28;45276;-76
2022/05/21 08:15:33;;;;;;;;;3.67;3.67;;;;;34.09;34.14;100407.81;5038501;28;46322;-76
2022/05/21 08:18:00;;;;;;;;;6.00;6.00;;;;;35.83;31.01;100373.22;5038584;28;45458;-76
2022/05/21 08:20:27;;;;;;;;;8.00;6.33;;;;;37.69;28.79;100415.19;5038346;28;45230;-76
2022/05/21 08:28:21;;;;;;;;;3.67;3.67;;;;;39.95;26.06;100443.94;5038084;28;45268;-76
2022/05/21 08:30:48;;;;;;;;;5.00;5.00;;;;;40.95;24.79;100428.72;5038274;28;45299;-76
2022/05/21 08:33:16;;;;;;;;;4.67;4.33;;;;;40.63;25.26;100436.50;5037106;28;45478;-76
2022/05/21 08:35:42;;;;;;;;;4.67;4.00;;;;;40.99;24.73;100444.81;5037880;28;46207;-76
2022/05/21 08:38:10;;;;;;;;;6.33;6.33;;;;;41.17;23.91;100453.06;5037933;28;45483;-76
2022/05/21 08:40:40;;;;;;;;;4.00;4.00;;;;;40.80;25.03;100448.56;5037792;28;45627;-75
2022/05/21 08:43:13;;;;;;;;;5.67;5.00;;;;;40.08;25.32;100435.41;5038026;28;45437;-76
2022/05/21 08:46:00;;;;;;;;;5.67;5.67;;;;;39.54;25.94;100448.69;5037520;28;46137;-76
2022/05/21 08:48:31;;;;;;;;;5.00;4.33;;;;;39.56;26.23;100451.28;5036418;28;45441;-76
2022/05/21 08:50:57;;;;;;;;;5.00;5.00;;;;;39.55;25.65;100444.06;5037555;28;45227;-76
2022/05/21 08:53:27;;;;;;;;;5.33;5.33;;;;;39.89;25.37;100446.38;5036472;28;45513;-76
2022/05/21 08:55:58;;;;;;;;;7.00;6.00;;;;;40.62;24.73;100432.91;5037292;28;45495;-76
2022/05/21 08:58:42;;;;;;;;;4.67;4.67;;;;;41.71;23.93;100421.09;5037767;28;45276;-76
2022/05/21 09:01:12;;;;;;;;;4.67;4.67;;;;;43.00;22.84;100431.22;5036202;28;45235;-76
2022/05/21 09:03:38;;;;;;;;;6.00;6.00;;;;;44.11;21.63;100446.47;5037907;28;45438;-77
2022/05/21 09:06:17;;;;;;;;;6.00;6.00;;;;;44.95;20.42;100439.47;5037709;28;45328;-75
2022/05/21 09:08:55;;;;;;;;;5.00;5.00;;;;;45.53;19.70;100436.34;5036310;28;45646;-77
2022/05/21 09:11:38;;;;;;;;;6.00;6.00;;;;;45.65;19.72;100410.91;5037564;28;45517;-77
2022/05/21 09:14:29;;;;;;;;;5.00;5.00;;;;;45.92;19.38;100438.91;5038025;28;45275;-77
2022/05/21 09:16:55;;;;;;;;;14.33;14.33;;;;;46.52;19.27;100436.22;5036974;28;45549;-77
2022/05/21 09:19:25;;;;;;;;;12.00;12.00;;;;;46.95;18.33;100428.91;5037154;28;45277;-77
2022/05/21 09:22:01;;;;;;;;;7.00;7.00;;;;;46.93;18.03;100436.56;5037576;28;45267;-77
2022/05/21 09:24:37;;;;;;;;;9.00;9.00;;;;;47.19;18.14;100436.00;5037299;28;45434;-77
2022/05/21 09:27:06;;;;;;;;;8.33;8.33;;;;;47.42;17.95;100426.69;5037137;28;45414;-77
2022/05/21 09:29:35;;;;;;;;;7.00;6.33;;;;;47.50;17.60;100404.41;5037012;28;45251;-77
2022/05/21 09:32:32;;;;;;;;;5.67;5.67;;;;;47.86;17.80;100438.56;5037159;28;45446;-78
2022/05/21 09:35:14;;;;;;;;;9.00;8.33;;;;;47.79;18.14;100430.19;5037386;28;45445;-77
2022/05/21 09:37:41;;;;;;;;;9.00;8.00;;;;;47.62;17.65;100432.41;5036900;28;45393;-76
2022/05/21 09:40:31;;;;;;;;;17.00;17.00;;;;;47.89;17.30;100427.06;5037135;28;45525;-77
2022/05/21 09:45:43;;;;;;;;;8.00;8.00;;;;;48.37;16.77;100441.94;5036640;28;45323;-77
2022/05/21 09:48:08;;;;;;;;;8.00;8.00;;;;;48.39;16.99;100428.75;5036806;28;45196;-78
2022/05/21 09:50:46;;;;;;;;;11.33;10.33;;;;;47.46;18.14;100411.38;5036062;28;45557;-77
2022/05/21 09:53:29;;;;;;;;;8.00;8.00;;;;;46.66;18.65;100413.25;5035699;28;45446;-77
2022/05/21 09:56:04;;;;;;;;;10.33;10.00;;;;;46.20;18.97;100407.94;5036739;28;45454;-78
2022/05/21 09:58:38;;;;;;;;;11.00;10.33;;;;;45.20;19.87;100398.81;5036246;28;45519;-76
2022/05/21 10:01:06;;;;;;;;;11.67;11.33;;;;;45.54;19.52;100378.19;5036581;28;45427;-76
2022/05/21 10:03:53;;;;;;;;;8.67;8.67;;;;;45.89;19.51;100386.88;5036772;28;45329;-75
2022/05/21 10:06:26;;;;;;;;;9.67;9.33;;;;;46.47;19.12;100367.75;5036854;28;46031;-75
2022/05/21 10:11:56;;;;;;;;;9.33;9.33;;;;;46.23;19.50;100368.91;5036544;28;45387;-76
2022/05/21 10:14:28;;;;;;;;;9.33;9.00;;;;;45.51;20.29;100375.84;5036539;28;45477;-78
2022/05/21 10:16:59;;;;;;;;;11.33;11.33;;;;;46.07;19.90;100369.09;5036455;28;45720;-77
2022/05/21 10:19:40;;;;;;;;;14.67;14.67;;;;;46.69;19.13;100362.25;5036453;28;46300;-78
2022/05/21 10:22:11;;;;;;;;;12.33;12.33;;;;;46.94;18.97;100357.22;5036681;28;45627;-78
2022/05/21 10:25:08;;;;;;;;;10.33;9.67;;;;;46.96;18.86;100356.00;5036749;28;45426;-78
2022/05/21 10:27:45;;;;;;;;;9.33;9.33;;;;;47.02;19.64;100365.41;5036504;28;45229;-78
2022/05/21 10:30:13;;;;;;;;;9.67;9.67;;;;;46.71;19.16;100346.34;5036593;28;45275;-78
2022/05/21 10:32:47;;;;;;;;;10.33;10.33;;;;;46.58;19.72;100358.09;5036547;28;45428;-77
2022/05/21 10:35:31;;;;;;;;;10.00;9.00;;;;;46.22;20.06;100350.59;5036217;28;46074;-77
2022/05/21 10:38:10;;;;;;;;;11.00;11.00;;;;;46.23;19.56;100327.47;5034959;28;45327;-79
2022/05/21 10:40:45;;;;;;;;;7.67;7.67;;;;;45.87;19.27;100294.25;5036052;28;46068;-76
2022/05/21 10:43:36;;;;;;;;;11.00;11.00;;;;;44.95;21.12;100339.38;5036689;28;45426;-78
2022/05/21 10:46:20;;;;;;;;;10.67;10.67;;;;;44.60;21.70;100319.63;5036484;28;45444;-77
2022/05/21 10:49:02;;;;;;;;;12.67;12.67;;;;;44.34;21.57;100292.38;5036249;28;45335;-76
2022/05/21 10:51:35;;;;;;;;;13.33;12.67;;;;;44.87;21.54;100321.03;5036250;28;45817;-76
2022/05/21 10:54:29;;;;;;;;;13.00;11.33;;;;;44.91;21.57;100303.09;5035829;28;45324;-77
2022/05/21 10:57:25;;;;;;;;;12.00;12.00;;;;;45.18;21.30;100314.56;5036158;28;45523;-77
2022/05/21 10:59:57;;;;;;;;;12.00;12.00;;;;;45.14;21.52;100319.59;5036132;28;45438;-77
2022/05/21 11:02:40;;;;;;;;;12.67;12.67;;;;;45.08;21.73;100323.09;5037789;28;45404;-77
2022/05/21 11:05:45;;;;;;;;;12.67;12.33;;;;;44.91;22.02;100324.25;5038258;28;45557;-78
2022/05/21 11:08:19;;;;;;;;;11.67;11.67;;;;;43.99;22.99;100317.47;5039827;28;45512;-77
2022/05/21 11:10:55;;;;;;;;;11.67;11.67;;;;;42.88;23.83;100342.78;5039322;28;45398;-76
2022/05/21 11:13:39;;;;;;;;;13.67;13.67;;;;;42.19;24.53;100333.78;5039011;28;45446;-77
2022/05/21 11:16:15;;;;;;;;;13.00;12.33;;;;;41.48;26.18;100322.84;5039232;28;45487;-77
2022/05/21 11:18:54;;;;;;;;;10.67;10.67;;;;;40.73;26.16;100308.63;5038264;28;45589;-77
2022/05/21 11:21:33;;;;;;;;;10.67;10.67;;;;;39.64;27.73;100312.00;5039433;28;45520;-77
2022/05/21 11:24:12;;;;;;;;;13.33;13.33;;;;;38.98;28.92;100308.16;5038929;28;45522;-77
2022/05/21 11:26:47;;;;;;;;;12.33;12.33;;;;;38.09;29.66;100214.50;5038912;28;45361;-77
2022/05/21 11:29:31;;;;;;;;;13.33;12.33;;;;;38.37;29.99;100316.50;5039293;28;45285;-77
2022/05/21 11:37:44;;;;;;;;;13.33;12.67;;;;;37.59;31.52;100310.69;5038738;28;45410;-76
2022/05/21 11:40:49;;;;;;;;;15.00;15.00;;;;;37.28;32.24;100302.41;5039023;28;45511;-75
2022/05/21 11:43:15;;;;;;;;;15.67;15.00;;;;;36.83;31.75;100297.16;5039439;28;45319;-75
2022/05/21 11:45:57;;;;;;;;;14.00;13.67;;;;;36.78;32.99;100313.00;5039219;28;46182;-76
2022/05/21 11:48:28;;;;;;;;;12.67;12.33;;;;;36.61;33.12;100315.25;5038493;28;45478;-76
2022/05/21 11:51:19;;;;;;;;;13.67;13.33;;;;;36.36;34.09;100310.97;5038681;28;45520;-76
2022/05/21 11:53:46;;;;;;;;;15.00;15.00;;;;;36.31;33.89;100306.91;5039252;28;45442;-76
2022/05/21 11:56:13;;;;;;;;;15.00;14.67;;;;;36.14;34.03;100284.66;5038725;28;46014;-76
2022/05/21 11:59:00;;;;;;;;;16.67;15.67;;;;;36.36;33.82;100291.09;5038397;28;45496;-76
2022/05/21 12:01:41;;;;;;;;;14.00;14.00;;;;;36.13;35.12;100307.41;5038340;28;45446;-76
2022/05/21 12:04:36;;;;;;;;;13.00;12.00;;;;;36.07;34.82;100288.84;5038447;28;45287;-77
2022/05/21 12:07:05;;;;;;;;;14.00;13.33;;;;;36.14;34.62;100294.66;5029173;28;46069;-77